Time;durP1;ratioP1;P1;durP2;ratioP2;P2;SDS_P1;SDS_P2;PMS_P1;PMS_P2;Temp;Humidity;BMP_temperature;BMP_pressure;BME280_temperature;BME280_humidity;BME280_pressure;Samples;Min_cycle;Max_cycle;Signal;HPM_P1;HPM_P2
2022/05/04 00:00:20;;;;;;;12.25;2.90;;;;;;;7.69;100.00;101817.38;10106949;28;20078;-67
2022/05/04 00:05:16;;;;;;;14.82;2.53;;;;;;;7.68;100.00;101821.19;10100000;28;20055;-69
2022/05/04 00:10:14;;;;;;;11.60;2.85;;;;;;;7.63;100.00;101823.88;10110807;28;20051;-69
2022/05/04 00:15:10;;;;;;;12.57;2.17;;;;;;;7.64;100.00;101819.28;10086682;28;20129;-67
2022/05/04 00:20:07;;;;;;;12.25;2.55;;;;;;;7.54;100.00;101825.50;10111842;28;20074;-66
2022/05/04 00:25:04;;;;;;;12.32;2.60;;;;;;;7.51;100.00;101820.63;10104385;28;20144;-64
2022/05/04 00:30:01;;;;;;;12.23;2.58;;;;;;;7.50;100.00;101808.09;10117457;28;20070;-64
2022/05/04 00:34:57;;;;;;;9.18;2.13;;;;;;;7.45;100.00;101810.81;10104035;28;20051;-66
2022/05/04 00:39:54;;;;;;;14.90;3.35;;;;;;;7.38;100.00;101817.34;10116137;28;20106;-66
2022/05/04 00:44:51;;;;;;;16.35;3.72;;;;;;;7.28;100.00;101820.03;10111244;28;20121;-67
2022/05/04 00:49:48;;;;;;;14.20;3.65;;;;;;;7.25;100.00;101828.72;10100538;28;20494;-67
2022/05/04 00:54:49;;;;;;;13.10;2.97;;;;;;;7.17;100.00;101826.50;10116646;28;20050;-66
2022/05/04 01:18:43;;;;;;;13.48;3.85;;;;;;;6.99;100.00;101824.31;10101702;28;20039;-63
2022/05/04 01:23:39;;;;;;;12.73;3.42;;;;;;;6.99;100.00;101825.13;10114237;28;20086;-66
2022/05/04 01:28:36;;;;;;;14.68;4.10;;;;;;;6.97;100.00;101826.47;10096900;28;20051;-63
2022/05/04 01:33:32;;;;;;;10.38;3.53;;;;;;;7.00;100.00;101828.66;10106126;28;20062;-65
2022/05/04 01:38:29;;;;;;;11.18;4.30;;;;;;;7.02;100.00;101819.13;10095710;28;20117;-64
2022/05/04 01:43:26;;;;;;;10.10;3.60;;;;;;;7.04;100.00;101816.16;10107823;28;20055;-68
2022/05/04 01:48:23;;;;;;;14.32;4.20;;;;;;;7.08;100.00;101822.72;10094659;28;20133;-67
2022/05/04 01:53:19;;;;;;;13.80;4.47;;;;;;;7.00;100.00;101820.50;10117061;28;20488;-66
2022/05/04 01:58:16;;;;;;;14.45;4.90;;;;;;;6.97;100.00;101826.47;10097744;28;20082;-67
2022/05/04 02:03:12;;;;;;;14.68;3.80;;;;;;;6.94;100.00;101823.19;10112154;28;20046;-66
2022/05/04 02:08:09;;;;;;;12.07;3.80;;;;;;;6.91;100.00;101818.28;10096643;28;20081;-62
2022/05/04 02:13:05;;;;;;;11.77;4.03;;;;;;;6.81;100.00;101823.69;10106905;28;20117;-63
2022/05/04 02:18:07;;;;;;;15.80;4.00;;;;;;;6.82;100.00;101819.06;10109751;28;20134;-63
2022/05/04 02:23:03;;;;;;;11.82;3.95;;;;;;;6.78;100.00;101832.38;10096208;28;20081;-62
2022/05/04 02:28:00;;;;;;;13.85;4.18;;;;;;;6.71;100.00;101829.09;10101578;28;20799;-65
2022/05/04 02:32:56;;;;;;;11.88;4.63;;;;;;;6.68;100.00;101829.59;10098063;28;20172;-66
2022/05/04 02:37:57;;;;;;;15.98;4.22;;;;;;;6.68;100.00;101830.44;10081391;28;20563;-66
2022/05/04 02:42:54;;;;;;;14.50;4.55;;;;;;;6.73;100.00;101832.34;10097148;28;20066;-64
2022/05/04 02:47:51;;;;;;;12.63;4.18;;;;;;;6.64;100.00;101831.22;10090650;28;20105;-65
2022/05/04 02:52:48;;;;;;;18.33;4.30;;;;;;;6.82;100.00;101836.19;10107864;28;20043;-65
2022/05/04 02:57:44;;;;;;;10.57;3.63;;;;;;;6.80;100.00;101827.50;10093179;28;20066;-64
2022/05/04 03:02:41;;;;;;;8.65;3.38;;;;;;;6.93;100.00;101829.69;10112013;28;20481;-66
2022/05/04 03:07:38;;;;;;;19.40;4.53;;;;;;;6.91;100.00;101822.91;10104027;28;20574;-63
2022/05/04 03:12:34;;;;;;;15.73;3.50;;;;;;;6.93;100.00;101826.97;10097224;28;20043;-64
2022/05/04 03:17:31;;;;;;;19.90;4.53;;;;;;;6.95;100.00;101824.81;10088399;28;20050;-66
2022/05/04 03:22:29;;;;;;;16.23;5.40;;;;;;;7.00;100.00;101820.50;10081221;28;20273;-63
2022/05/04 03:27:26;;;;;;;14.02;3.53;;;;;;;6.89;100.00;101814.19;10082288;28;20070;-66
2022/05/04 03:32:26;;;;;;;14.23;4.22;;;;;;;6.85;100.00;101813.91;10078695;28;20055;-66
2022/05/04 03:37:23;;;;;;;14.40;3.97;;;;;;;6.80;100.00;101805.75;10088404;28;20075;-67
2022/05/04 03:42:19;;;;;;;12.10;3.50;;;;;;;6.79;100.00;101809.53;10106653;28;20054;-68
2022/05/04 03:47:16;;;;;;;12.70;3.47;;;;;;;6.86;100.00;101818.25;10107191;28;20051;-67
2022/05/04 03:52:12;;;;;;;14.60;3.75;;;;;;;6.93;100.00;101807.94;10116822;28;20078;-67
2022/05/04 03:57:09;;;;;;;11.45;4.05;;;;;;;6.90;100.00;101816.66;10101328;28;20119;-65
2022/05/04 04:02:05;;;;;;;13.48;3.65;;;;;;;7.02;100.00;101819.13;10087240;28;20050;-64
2022/05/04 04:07:02;;;;;;;14.02;4.22;;;;;;;7.06;100.00;101816.72;10085282;28;20822;-65
2022/05/04 04:12:00;;;;;;;12.90;3.80;;;;;;;7.05;100.00;101817.78;10088652;28;20088;-65
2022/05/04 04:16:56;;;;;;;11.63;3.42;;;;;;;7.03;100.00;101830.81;10084416;28;20047;-68
2022/05/04 04:21:53;;;;;;;13.05;3.45;;;;;;;7.07;100.00;101835.47;10097659;28;20059;-66
2022/05/04 04:26:50;;;;;;;14.73;3.28;;;;;;;7.08;100.00;101833.59;10080337;28;20043;-66
2022/05/04 04:31:47;;;;;;;13.75;4.00;;;;;;;7.13;100.00;101825.44;10086198;28;20070;-66
2022/05/04 04:36:44;;;;;;;10.45;3.78;;;;;;;7.12;100.00;101829.22;10087911;28;20061;-66
2022/05/04 04:41:41;;;;;;;14.13;4.00;;;;;;;7.05;100.00;101823.22;10079907;28;20110;-65
2022/05/04 04:46:37;;;;;;;12.77;4.00;;;;;;;6.97;100.00;101818.31;10079959;28;20047;-65
2022/05/04 04:51:34;;;;;;;18.25;5.45;;;;;;;7.07;100.00;101821.06;10077014;28;20038;-66
2022/05/04 04:56:31;;;;;;;14.32;4.25;;;;;;;7.08;100.00;101831.69;10077517;28;20550;-65
2022/05/04 05:01:27;;;;;;;12.63;3.85;;;;;;;7.18;100.00;101828.16;10079458;28;20051;-65
2022/05/04 05:06:25;;;;;;;19.02;5.25;;;;;;;7.28;100.00;101828.19;10083575;28;20051;-66
2022/05/04 05:11:21;;;;;;;12.57;3.70;;;;;;;7.34;100.00;101821.69;10098231;28;20070;-66
2022/05/04 05:16:18;;;;;;;17.23;4.00;;;;;;;7.32;100.00;101818.41;10092954;28;20570;-66
2022/05/04 05:21:14;;;;;;;11.73;3.78;;;;;;;7.45;100.00;101821.69;10081576;28;20560;-66
2022/05/04 05:26:11;;;;;;;11.52;3.17;;;;;;;7.41;100.00;101815.16;10072993;28;20047;-66
2022/05/04 05:31:08;;;;;;;12.80;3.42;;;;;;;7.52;100.00;101822.22;10073993;28;20051;-66
2022/05/04 05:36:06;;;;;;;11.48;3.15;;;;;;;7.47;100.00;101828.53;10077478;28;20416;-66
2022/05/04 05:41:02;;;;;;;13.20;3.67;;;;;;;7.52;100.00;101822.22;10073377;28;20097;-66
2022/05/04 05:45:58;;;;;;;18.55;3.00;;;;;;;7.56;100.00;101823.34;10079103;28;20176;-66
2022/05/04 05:50:55;;;;;;;14.32;3.30;;;;;;;7.63;100.00;101823.88;10073967;28;20641;-66
2022/05/04 05:55:52;;;;;;;12.90;3.50;;;;;;;7.64;100.00;101822.81;10081071;28;20042;-66
2022/05/04 06:00:49;;;;;;;9.52;2.70;;;;;;;7.71;100.00;101825.28;10111895;28;20116;-66
2022/05/04 06:05:46;;;;;;;11.27;2.05;;;;;;;7.75;100.00;101810.00;10095556;28;20549;-66
2022/05/04 06:10:42;;;;;;;9.98;1.77;;;;;;;7.80;100.00;101810.84;10072270;28;20133;-66
2022/05/04 06:15:39;;;;;;;10.25;2.58;;;;;;;7.91;100.00;101805.38;10079309;28;20086;-66
2022/05/04 06:20:35;;;;;;;10.73;1.98;;;;;;;7.98;100.00;101806.75;10109869;28;20047;-65
2022/05/04 06:25:32;;;;;;;6.75;1.48;;;;;;;8.05;100.00;101811.91;10072842;28;20078;-66
2022/05/04 06:35:44;;;;;;;11.05;1.83;;;;;;;8.12;100.00;101823.38;10079468;28;20126;-65
2022/05/04 06:40:40;;;;;;;6.03;1.10;;;;;;;8.16;100.00;101813.53;10079156;28;20043;-65
2022/05/04 06:45:37;;;;;;;9.88;1.65;;;;;;;8.29;100.00;101824.97;10070912;28;20663;-65
2022/05/04 06:50:33;;;;;;;10.00;1.73;;;;;;;8.40;100.00;101821.16;10071343;28;20050;-65
2022/05/04 06:55:30;;;;;;;9.23;1.20;;;;;;;8.47;100.00;101821.69;10076930;28;20054;-68
2022/05/04 07:00:26;;;;;;;9.02;2.38;;;;;;;8.42;100.00;101829.88;10072939;28;20076;-65
2022/05/04 07:05:23;;;;;;;8.05;1.55;;;;;;;8.58;100.00;101831.47;10083684;28;20055;-66
2022/05/04 07:10:19;;;;;;;9.93;2.17;;;;;;;8.82;100.00;101828.13;10107283;28;20046;-66
2022/05/04 07:15:16;;;;;;;6.50;1.25;;;;;;;8.90;100.00;101834.91;10072845;28;20083;-66
2022/05/04 07:20:13;;;;;;;7.57;1.13;;;;;;;8.78;100.00;101829.78;10068510;28;20504;-66
2022/05/04 07:25:10;;;;;;;7.43;1.80;;;;;;;8.99;100.00;101827.78;10069963;28;20058;-67
2022/05/04 07:30:07;;;;;;;10.70;1.30;;;;;;;9.15;100.00;101817.59;10070254;28;20059;-66
2022/05/04 07:35:05;;;;;;;8.35;1.70;;;;;;;9.30;100.00;101820.22;10072471;28;20776;-68
2022/05/04 07:45:18;;;;;;;12.23;1.73;;;;;;;9.55;100.00;101821.19;10078880;28;20458;-68
2022/05/04 07:50:14;;;;;;;10.68;1.73;;;;;;;9.66;100.00;101828.19;10073849;28;20110;-68
2022/05/04 07:55:11;;;;;;;11.40;1.58;;;;;;;9.74;100.00;101827.56;10078013;28;20051;-66
2022/05/04 08:05:24;;;;;;;10.57;1.90;;;;;;;9.79;100.00;101830.25;10084685;28;20055;-68
2022/05/04 08:10:21;;;;;;;10.70;1.67;;;;;;;9.99;100.00;101839.41;10069571;28;20087;-68
2022/05/04 08:15:17;;;;;;;10.20;1.75;;;;;;;10.16;100.00;101837.06;10076056;28;20082;-65
2022/05/04 08:20:14;;;;;;;10.60;2.00;;;;;;;10.29;100.00;101833.69;10103595;28;20085;-67
2022/05/04 08:25:11;;;;;;;11.15;1.92;;;;;;;10.29;99.95;101833.69;10099492;28;20431;-66
2022/05/04 08:30:07;;;;;;;11.82;1.80;;;;;;;10.02;98.31;101849.75;10084035;28;20051;-65
2022/05/04 08:35:04;;;;;;;7.15;1.75;;;;;;;10.37;100.00;101834.16;10081374;28;20240;-65
2022/05/04 08:40:01;;;;;;;9.45;1.40;;;;;;;10.66;99.34;101837.69;10076921;28;20062;-66
2022/05/04 08:44:58;;;;;;;5.80;1.90;;;;;;;10.82;96.05;101840.25;10074863;28;20051;-65
2022/05/04 08:49:54;;;;;;;8.88;1.88;;;;;;;10.76;94.93;101838.66;10075777;28;20051;-65
2022/05/04 08:54:53;;;;;;;7.60;1.52;;;;;;;10.76;95.59;101836.75;10075631;28;20043;-66
2022/05/04 08:59:49;;;;;;;14.55;3.00;;;;;;;10.80;95.31;101842.44;10113440;28;20083;-65
2022/05/04 09:04:46;;;;;;;9.90;1.80;;;;;;;10.99;93.17;101835.09;10103208;28;20082;-65
2022/05/04 09:09:44;;;;;;;7.85;1.67;;;;;;;11.11;91.67;101849.16;10082747;28;20514;-66
2022/05/04 09:14:42;;;;;;;7.60;1.90;;;;;;;11.48;90.18;101825.66;10074827;28;20099;-65
2022/05/04 09:20:44;;;;;;;6.88;1.75;;;;;;;11.62;88.69;101835.84;10073877;28;20063;-65
2022/05/04 09:24:59;;;;;;;12.45;2.03;;;;;;;11.70;87.04;101826.97;10079492;28;20055;-66
2022/05/04 09:30:02;;;;;;;7.82;1.80;;;;;;;11.56;87.03;101833.22;10074365;28;20073;-66
2022/05/04 09:35:02;;;;;;;12.68;2.20;;;;;;;11.93;88.97;101831.56;10089251;28;20121;-66
2022/05/04 09:45:16;;;;;;;9.45;1.88;;;;;;;12.13;83.62;101829.56;10083008;28;20090;-65
2022/05/04 09:50:15;;;;;;;8.60;1.70;;;;;;;12.55;81.00;101833.19;10072739;28;20047;-66
2022/05/04 09:55:19;;;;;;;8.07;2.88;;;;;;;12.91;78.79;101827.00;10082774;28;20043;-65
2022/05/04 10:00:20;;;;;;;7.80;1.60;;;;;;;13.70;75.73;101823.84;10088944;28;20055;-65
2022/05/04 10:05:20;;;;;;;11.23;1.83;;;;;;;14.26;65.14;101827.94;10097946;28;20059;-66
2022/05/04 10:10:20;;;;;;;8.27;1.77;;;;;;;14.61;66.18;101819.06;10081682;28;20400;-66
2022/05/04 10:15:19;;;;;;;8.95;1.77;;;;;;;13.75;64.89;101828.44;10070618;28;20113;-65
2022/05/04 10:20:19;;;;;;;11.75;2.10;;;;;;;13.53;68.19;101821.81;10072403;28;20051;-66
2022/05/04 10:25:17;;;;;;;6.32;2.03;;;;;;;14.24;64.26;101821.13;10071245;28;20111;-65
2022/05/04 10:30:31;;;;;;;7.18;1.95;;;;;;;15.48;59.29;101827.47;10072031;28;20047;-67
2022/05/04 10:35:44;;;;;;;9.73;1.77;;;;;;;15.83;53.32;101816.44;10076069;28;20514;-67
2022/05/04 10:40:57;;;;;;;8.57;2.10;;;;;;;15.11;54.43;101813.19;10103014;28;20077;-67
2022/05/04 10:46:03;;;;;;;8.85;2.17;;;;;;;14.08;61.56;101802.25;10100162;28;20494;-68
2022/05/04 10:51:18;;;;;;;9.32;1.90;;;;;;;13.99;65.63;101806.91;10109581;28;20046;-65
2022/05/04 10:56:23;;;;;;;5.50;2.10;;;;;;;13.89;65.45;101801.66;10081432;28;20057;-65
2022/05/04 11:01:24;;;;;;;8.65;2.58;;;;;;;13.67;66.66;101806.06;10096159;28;20043;-67
2022/05/04 11:06:32;;;;;;;11.85;2.80;;;;;;;13.47;68.69;101806.53;10081058;28;20046;-67
2022/05/04 11:11:30;;;;;;;10.65;3.75;;;;;;;13.55;69.94;101797.53;10087885;28;20051;-65
2022/05/04 11:16:28;;;;;;;12.55;3.13;;;;;;;13.53;68.98;101782.50;10069450;28;20528;-65
2022/05/04 11:21:27;;;;;;;7.85;2.22;;;;;;;14.13;68.36;101784.81;10070776;28;20043;-65
2022/05/04 11:26:36;;;;;;;10.75;3.03;;;;;;;14.30;63.14;101790.41;10081375;28;20043;-67
2022/05/04 11:31:33;;;;;;;11.65;2.92;;;;;;;14.43;64.18;101766.66;10084368;28;20098;-67
2022/05/04 11:36:29;;;;;;;9.90;2.40;;;;;;;14.71;60.08;101782.97;10082077;28;20081;-66
2022/05/04 11:41:26;;;;;;;7.68;2.50;;;;;;;15.61;57.64;101771.34;10072640;28;20114;-67
2022/05/04 11:46:22;;;;;;;10.20;2.13;;;;;;;16.58;52.78;101765.22;10089367;28;20170;-65
2022/05/04 11:51:19;;;;;;;6.65;1.83;;;;;;;16.17;52.26;101777.72;10069513;28;20043;-66
2022/05/04 11:56:16;;;;;;;8.80;2.53;;;;;;;15.24;54.01;101768.13;10081818;28;20051;-66
2022/05/04 12:01:13;;;;;;;7.65;1.80;;;;;;;15.06;56.97;101769.25;10077512;28;20105;-65
2022/05/04 12:06:11;;;;;;;8.02;2.03;;;;;;;15.01;59.13;101769.41;10084060;28;20051;-65
2022/05/04 12:11:08;;;;;;;12.20;2.17;;;;;;;15.09;61.64;101765.88;10116335;28;20055;-66
2022/05/04 12:16:07;;;;;;;7.50;2.15;;;;;;;15.47;58.29;101760.50;10091771;28;20055;-66
2022/05/04 12:21:12;;;;;;;7.95;2.05;;;;;;;15.59;59.54;101757.09;10077008;28;20074;-65
2022/05/04 12:26:12;;;;;;;8.45;2.50;;;;;;;15.44;58.01;101752.09;10083206;28;20047;-66
2022/05/04 12:36:25;;;;;;;11.35;3.55;;;;;;;16.46;51.26;101737.53;10082244;28;20054;-66
2022/05/04 12:41:25;;;;;;;8.15;2.83;;;;;;;16.72;51.85;101739.31;10075825;28;20605;-66
2022/05/04 12:46:22;;;;;;;7.05;2.25;;;;;;;17.15;49.62;101724.41;10096904;28;20070;-65
2022/05/04 12:51:18;;;;;;;8.60;1.80;;;;;;;17.14;49.21;101726.34;10075340;28;20090;-65
2022/05/04 13:01:32;;;;;;;6.80;2.15;;;;;;;17.49;46.26;101719.72;10092899;28;20082;-66
2022/05/04 13:06:29;;;;;;;9.40;2.45;;;;;;;16.98;49.44;101711.53;10103599;28;20722;-66
2022/05/04 13:11:26;;;;;;;8.70;2.85;;;;;;;16.07;48.59;101717.41;10114135;28;20495;-65
2022/05/04 13:16:22;;;;;;;9.55;2.60;;;;;;;15.93;50.83;101705.78;10076336;28;20074;-65
2022/05/04 13:21:21;;;;;;;10.02;2.85;;;;;;;16.06;49.49;101707.53;10074768;28;20514;-65
2022/05/04 13:26:17;;;;;;;6.80;2.53;;;;;;;15.77;50.12;101700.00;10091160;28;20137;-65
2022/05/04 13:31:14;;;;;;;8.68;2.50;;;;;;;15.67;51.11;101703.09;10093849;28;20519;-65
2022/05/04 13:36:10;;;;;;;7.00;2.40;;;;;;;15.89;51.03;101693.78;10073380;28;20138;-65
2022/05/04 13:41:07;;;;;;;7.88;2.60;;;;;;;15.84;50.50;101680.19;10074275;28;20146;-65
2022/05/04 13:46:03;;;;;;;4.90;2.30;;;;;;;16.01;49.16;101687.59;10088829;28;20109;-65
2022/05/04 13:56:15;;;;;;;8.10;2.40;;;;;;;17.02;47.76;101669.09;10083036;28;20047;-66
2022/05/04 14:01:12;;;;;;;7.55;2.47;;;;;;;17.80;44.51;101677.72;10091789;28;20059;-65
2022/05/04 14:06:09;;;;;;;10.52;3.30;;;;;;;17.33;45.20;101673.34;10088269;28;20047;-65
2022/05/04 14:11:06;;;;;;;7.93;2.22;;;;;;;17.43;45.77;101672.94;10083078;28;20059;-65
2022/05/04 14:16:03;;;;;;;8.07;3.38;;;;;;;17.16;44.65;101670.75;10071547;28;20063;-65
2022/05/04 14:21:03;;;;;;;7.35;2.00;;;;;;;16.98;44.69;101668.13;10072300;28;20051;-65
2022/05/04 14:26:01;;;;;;;7.47;2.55;;;;;;;16.77;46.78;101670.09;10077257;28;20071;-66
2022/05/04 14:30:59;;;;;;;6.40;2.92;;;;;;;16.71;46.15;101668.66;10078555;28;20499;-64
2022/05/04 14:35:57;;;;;;;7.80;2.13;;;;;;;16.51;47.19;101665.56;10084314;28;20098;-63
2022/05/04 14:40:53;;;;;;;7.60;2.35;;;;;;;16.51;48.08;101665.56;10074952;28;20047;-64
2022/05/04 14:45:55;;;;;;;8.37;2.23;;;;;;;16.44;48.64;101665.28;10080333;28;20050;-63
2022/05/04 14:50:52;;;;;;;11.52;3.40;;;;;;;16.58;48.99;101660.31;10090188;28;20142;-63
2022/05/04 14:55:49;;;;;;;6.60;2.47;;;;;;;16.59;47.36;101661.94;10088012;28;20046;-63
2022/05/04 15:00:46;;;;;;;10.48;3.38;;;;;;;16.41;48.23;101663.19;10089368;28;20056;-63
2022/05/04 15:05:42;;;;;;;7.55;2.97;;;;;;;16.67;48.20;101657.50;10094826;28;20051;-63
2022/05/04 15:10:38;;;;;;;8.57;3.00;;;;;;;16.74;46.76;101656.97;10085036;28;20102;-65
2022/05/04 15:15:36;;;;;;;8.43;2.92;;;;;;;16.79;47.79;101659.53;10081473;28;20133;-64
2022/05/04 15:20:35;;;;;;;8.85;2.42;;;;;;;16.95;47.23;101660.53;10081305;28;20503;-64
2022/05/04 15:25:31;;;;;;;8.70;2.33;;;;;;;17.04;47.45;101660.47;10086443;28;20157;-65
2022/05/04 15:30:28;;;;;;;11.55;2.50;;;;;;;17.17;45.39;101653.84;10078679;28;20154;-67
2022/05/04 15:35:24;;;;;;;8.23;2.28;;;;;;;17.42;44.39;101660.25;10076914;28;20093;-68
2022/05/04 15:40:21;;;;;;;8.98;2.10;;;;;;;17.06;44.64;101668.41;10086597;28;20047;-68
2022/05/04 15:45:18;;;;;;;7.68;2.38;;;;;;;17.16;46.20;101679.06;10099072;28;20583;-66
2022/05/04 15:50:14;;;;;;;7.75;2.50;;;;;;;17.14;46.66;101659.25;10094334;28;20051;-65
2022/05/04 15:55:13;;;;;;;7.65;2.22;;;;;;;17.23;46.03;101657.19;10096124;28;20075;-66
2022/05/04 16:00:10;;;;;;;10.68;3.05;;;;;;;16.81;45.69;101666.34;10095636;28;20118;-65
2022/05/04 16:05:07;;;;;;;8.00;2.53;;;;;;;17.28;45.87;101662.50;10097201;28;20055;-65
2022/05/04 16:10:05;;;;;;;8.38;2.10;;;;;;;17.32;46.17;101671.75;10090152;28;20074;-65
2022/05/04 16:15:02;;;;;;;10.13;4.60;;;;;;;17.80;44.78;101670.25;10098186;28;20131;-65
2022/05/04 16:25:13;;;;;;;8.73;1.88;;;;;;;19.35;41.43;101659.09;10084962;28;20579;-66
2022/05/04 16:30:11;;;;;;;11.50;3.20;;;;;;;19.84;40.20;101656.06;10080323;28;20058;-66
2022/05/04 16:35:08;;;;;;;10.23;3.28;;;;;;;19.97;39.58;101663.13;10083318;28;20126;-65
2022/05/04 16:40:19;;;;;;;7.65;2.05;;;;;;;20.01;39.60;101654.09;10086178;28;20514;-66
2022/05/04 16:45:15;;;;;;;12.98;2.45;;;;;;;19.55;39.35;101663.63;10077318;28;20555;-65
2022/05/04 16:50:12;;;;;;;8.75;1.95;;;;;;;19.89;39.80;101650.25;10072118;28;20055;-65
2022/05/04 16:55:10;;;;;;;6.15;1.80;;;;;;;19.25;40.14;101659.63;10073082;28;20065;-67
2022/05/04 17:00:07;;;;;;;8.10;2.10;;;;;;;19.08;41.26;101658.00;10077029;28;20546;-64
2022/05/04 17:05:04;;;;;;;11.25;2.08;;;;;;;18.46;41.79;101662.88;10072111;28;20772;-64
2022/05/04 17:10:01;;;;;;;8.90;2.70;;;;;;;18.27;43.54;101649.63;10078804;28;20050;-65
2022/05/04 17:14:58;;;;;;;9.30;2.35;;;;;;;18.24;42.70;101653.91;10077350;28;20146;-65
2022/05/04 17:19:54;;;;;;;7.78;1.92;;;;;;;18.38;44.16;101661.03;10085834;28;20050;-65
2022/05/04 17:24:51;;;;;;;9.43;1.88;;;;;;;18.32;43.16;101663.22;10081653;28;20051;-65
2022/05/04 17:29:48;;;;;;;9.38;2.55;;;;;;;18.21;41.70;101665.66;10080363;28;20324;-65
2022/05/04 17:40:00;;;;;;;7.00;2.30;;;;;;;17.40;43.89;101668.06;10080150;28;20106;-65
2022/05/04 17:44:56;;;;;;;10.15;2.03;;;;;;;16.39;46.36;101673.75;10079716;28;20138;-65
2022/05/04 17:49:53;;;;;;;6.65;1.70;;;;;;;15.89;48.59;101671.75;10087691;28;20071;-65
2022/05/04 17:54:49;;;;;;;9.02;2.47;;;;;;;15.20;52.30;101673.53;10085779;28;20109;-65
2022/05/04 17:59:46;;;;;;;7.93;2.60;;;;;;;15.11;53.79;101681.78;10088135;28;20075;-65
2022/05/04 18:04:43;;;;;;;7.90;1.77;;;;;;;14.69;56.63;101691.63;10085607;28;20148;-64
2022/05/04 18:09:39;;;;;;;11.93;2.50;;;;;;;14.52;58.86;101693.19;10084103;28;20134;-65
2022/05/04 18:14:36;;;;;;;5.65;1.70;;;;;;;14.08;62.91;101692.25;10088416;28;20133;-65
2022/05/04 18:19:33;;;;;;;11.57;2.33;;;;;;;14.09;63.22;101702.16;10094644;28;20079;-65
2022/05/04 18:24:29;;;;;;;9.15;2.08;;;;;;;13.65;65.91;101714.88;10110137;28;20126;-64
2022/05/04 18:29:26;;;;;;;10.88;2.03;;;;;;;13.55;68.88;101715.13;10105147;28;20085;-65
2022/05/04 18:34:22;;;;;;;7.10;2.00;;;;;;;13.31;71.23;101717.38;10090028;28;20581;-63
2022/05/04 18:39:20;;;;;;;10.40;2.63;;;;;;;13.23;72.95;101719.72;10084933;28;20043;-64
2022/05/04 18:44:16;;;;;;;6.22;1.38;;;;;;;12.97;75.05;101721.44;10070397;28;20758;-64
2022/05/04 18:49:13;;;;;;;8.35;1.98;;;;;;;12.82;78.71;101726.16;10087937;28;20094;-64
2022/05/04 18:54:09;;;;;;;7.68;1.67;;;;;;;12.80;79.84;101733.88;10082982;28;20093;-65
2022/05/04 18:59:07;;;;;;;8.80;1.98;;;;;;;12.69;81.80;101731.66;10087100;28;20400;-65
2022/05/04 19:04:04;;;;;;;12.95;2.30;;;;;;;12.58;82.01;101742.06;10079290;28;20077;-65
2022/05/04 19:09:00;;;;;;;6.85;1.80;;;;;;;12.40;84.00;101741.84;10085948;28;20038;-65
2022/05/04 19:13:57;;;;;;;10.57;2.00;;;;;;;12.13;86.17;101747.31;10087126;28;20177;-65
2022/05/04 19:18:53;;;;;;;8.60;1.60;;;;;;;12.09;87.40;101741.66;10087939;28;20078;-64
2022/05/04 19:23:51;;;;;;;6.20;1.85;;;;;;;12.02;87.60;101746.69;10079472;28;20491;-64
2022/05/04 19:28:47;;;;;;;12.85;2.33;;;;;;;11.81;89.16;101762.66;10092993;28;20137;-64
2022/05/04 19:33:45;;;;;;;7.18;2.25;;;;;;;11.72;89.89;101769.94;10086684;28;20484;-64
2022/05/04 19:38:42;;;;;;;5.50;1.52;;;;;;;11.64;89.49;101767.91;10097870;28;20058;-64
2022/05/04 19:43:39;;;;;;;8.70;1.70;;;;;;;11.48;90.86;101776.34;10095296;28;20477;-65
2022/05/04 19:48:35;;;;;;;6.78;1.92;;;;;;;11.53;90.63;101778.19;10093654;28;20129;-65
2022/05/04 19:53:32;;;;;;;9.25;2.33;;;;;;;11.33;90.87;101790.28;10089239;28;20039;-64
2022/05/04 19:58:29;;;;;;;7.85;2.70;;;;;;;11.34;91.09;101786.44;10103936;28;20082;-65
2022/05/04 20:03:25;;;;;;;8.75;2.05;;;;;;;11.29;91.17;101790.06;10104972;28;20484;-65
2022/05/04 20:08:22;;;;;;;10.50;2.45;;;;;;;11.14;91.80;101796.56;10102324;28;20462;-65
2022/05/04 20:13:18;;;;;;;7.55;1.95;;;;;;;10.97;92.86;101795.44;10106842;28;20489;-65
2022/05/04 20:18:15;;;;;;;8.30;2.10;;;;;;;10.92;93.15;101799.06;10084170;28;20566;-64
2022/05/04 20:23:12;;;;;;;7.00;2.22;;;;;;;10.83;95.08;101803.56;10094185;28;20495;-65
2022/05/04 20:28:09;;;;;;;11.93;2.45;;;;;;;10.72;95.70;101814.63;10092737;28;20614;-64
2022/05/04 20:33:06;;;;;;;9.43;1.67;;;;;;;10.56;97.04;101810.47;10091962;28;20078;-64
2022/05/04 20:43:18;;;;;;;12.15;3.42;;;;;;;10.46;98.59;101811.34;10092655;28;20038;-67
2022/05/04 20:48:14;;;;;;;8.48;2.28;;;;;;;10.47;98.63;101818.47;10093853;28;20071;-67
2022/05/04 20:53:11;;;;;;;10.52;2.00;;;;;;;10.42;100.00;101821.28;10102933;28;20039;-67
2022/05/04 20:58:11;;;;;;;8.20;1.70;;;;;;;10.43;99.42;101822.88;10097228;28;20142;-72
2022/05/04 21:03:08;;;;;;;13.98;2.30;;;;;;;10.50;100.00;101828.00;10087377;28;20078;-67
2022/05/04 21:08:04;;;;;;;9.55;1.75;;;;;;;10.40;100.00;101833.59;10087432;28;20050;-67
2022/05/04 21:13:04;;;;;;;9.80;2.13;;;;;;;10.26;100.00;101833.44;10099980;28;20107;-69
2022/05/04 21:18:01;;;;;;;9.70;2.10;;;;;;;10.26;100.00;101833.44;10091632;28;20055;-68
2022/05/04 21:23:18;;;;;;;5.72;2.13;;;;;;;10.13;100.00;101834.09;10107602;28;20142;-68
2022/05/04 21:28:15;;;;;;;7.75;1.73;;;;;;;10.06;100.00;101839.91;10091475;28;20112;-68
2022/05/04 21:33:13;;;;;;;15.15;2.67;;;;;;;9.93;100.00;101844.09;10111829;28;20043;-68
2022/05/04 21:38:09;;;;;;;8.60;2.17;;;;;;;9.99;100.00;101850.34;10097333;28;20050;-67
2022/05/04 21:43:06;;;;;;;7.85;2.55;;;;;;;9.95;100.00;101849.28;10112792;28;20054;-69
2022/05/04 21:48:03;;;;;;;10.95;2.88;;;;;;;9.88;100.00;101844.94;10107109;28;20494;-69
2022/05/04 21:53:01;;;;;;;10.13;2.08;;;;;;;9.80;100.00;101853.75;10108750;28;20130;-69
2022/05/04 21:57:57;;;;;;;11.10;2.65;;;;;;;9.57;100.00;101849.81;10110435;28;20086;-66
2022/05/04 22:02:54;;;;;;;10.00;2.17;;;;;;;9.58;100.00;101858.81;10106667;28;20034;-65
2022/05/04 22:07:51;;;;;;;11.32;2.17;;;;;;;9.48;100.00;101856.97;10110175;28;20470;-65
2022/05/04 22:18:04;;;;;;;9.68;2.80;;;;;;;9.53;100.00;101869.78;10103186;28;20078;-68
2022/05/04 22:23:01;;;;;;;9.52;1.98;;;;;;;9.45;100.00;101863.81;10105092;28;20074;-64
2022/05/04 22:28:01;;;;;;;5.15;1.77;;;;;;;9.39;100.00;101870.41;10078054;28;20090;-64
2022/05/04 22:32:58;;;;;;;3.88;1.48;;;;;;;9.32;100.00;101867.16;10107292;28;20134;-64
2022/05/04 22:37:55;;;;;;;8.65;2.17;;;;;;;9.26;100.00;101865.59;10077814;28;20089;-64
2022/05/04 22:42:51;;;;;;;9.05;1.80;;;;;;;9.20;100.00;101866.69;10111546;28;20134;-64
2022/05/04 22:47:48;;;;;;;8.63;2.20;;;;;;;9.11;100.00;101865.66;10102848;28;20051;-69
2022/05/04 22:52:45;;;;;;;6.25;1.98;;;;;;;9.05;100.00;101871.13;10093351;28;20707;-67
2022/05/04 22:57:43;;;;;;;6.05;1.80;;;;;;;8.96;100.00;101870.06;10109533;28;20076;-68
2022/05/04 23:02:39;;;;;;;7.60;2.00;;;;;;;8.89;100.00;101871.44;10106093;28;20087;-69
2022/05/04 23:07:36;;;;;;;5.90;1.92;;;;;;;8.83;100.00;101868.75;10103026;28;20050;-69
2022/05/04 23:12:32;;;;;;;8.55;3.08;;;;;;;8.76;100.00;101872.88;10108438;28;20085;-68
2022/05/04 23:17:29;;;;;;;9.38;2.25;;;;;;;8.75;100.00;101871.22;10096835;28;20078;-68
2022/05/04 23:22:25;;;;;;;9.38;3.00;;;;;;;8.71;100.00;101870.16;10108225;28;20046;-65
2022/05/04 23:27:22;;;;;;;9.32;2.40;;;;;;;8.66;100.00;101868.25;10093146;28;20511;-65
2022/05/04 23:32:18;;;;;;;9.18;2.92;;;;;;;8.62;100.00;101867.97;10100853;28;20320;-65
2022/05/04 23:37:28;;;;;;;9.77;2.63;;;;;;;8.51;100.00;101874.53;10104324;28;20093;-66
2022/05/04 23:42:24;;;;;;;8.00;3.22;;;;;;;8.51;100.00;101877.28;10109261;28;20109;-64
2022/05/04 23:47:23;;;;;;;8.32;2.83;;;;;;;8.51;100.00;101871.81;10102549;28;20195;-65
2022/05/04 23:52:19;;;;;;;12.13;2.30;;;;;;;8.35;100.00;101873.72;10102918;28;20114;-64
2022/05/04 23:57:16;;;;;;;6.40;2.30;;;;;;;8.21;100.00;101872.66;10098146;28;20054;-65
